Latest Coastal Weather Observations for Port Fairy

IDV60701

Issued at 6:05 pm EDT Saturday 25 October 2014 (issued every 10 minutes, with the page automatically refreshed every 10 minutes)

About coastal observations | Map of coastal stations | Coastal observations for VIC | Marine services | Other Formats
Station Details ID: 090175 Name: PORT FAIRY AWS Lat: -38.39 Lon: 142.23 Height: 10.0 m
Data from the previous 72 hours. | See also: Recent months at Port Fairy
Date/Time
EDT
Temp

°C
Wind Pressure Rain
since 9am
mm
Weather Cloud Vis
km
Sea
Height
m
Swell
Dir
 
Speed
knots
Gust
knots
hPa Trend Height
m
Period
s
Dir
25/06:00pm 14.4 SE 6 9 1016.4 - 0.0 - - - - - - -
25/05:30pm 14.6 SE 6 9 1016.4 - 0.0 - - - - - - -
25/05:00pm 14.9 SSE 7 9 1016.1 - 0.0 - - - - - - -
25/04:30pm 15.2 SSE 9 11 1016.5 - 0.0 - - - - - - -
25/04:00pm 15.8 SSE 11 15 1016.3 - 0.0 - - - - - - -
25/03:30pm 16.2 SSE 10 13 1016.5 - 0.0 - - - - - - -
25/03:00pm 16.4 SSE 10 14 1016.6 - 0.0 - - - - - - -
25/02:30pm 15.4 S 9 12 1017.0 - 0.0 - - - - - - -
25/02:00pm 16.9 SSE 8 11 1017.3 - 0.0 - - - - - - -
25/01:30pm 15.9 SSE 8 11 1017.3 - 0.0 - - - - - - -
25/01:00pm 16.5 SE 7 9 1017.6 - 0.0 - - - - - - -
25/12:30pm 15.5 ESE 5 7 1017.9 - 0.0 - - - - - - -
25/12:00pm 15.3 SE 6 9 1018.0 - 0.0 - - - - - - -
25/11:30am 15.7 SE 9 11 1018.1 - 0.0 - - - - - - -
25/11:00am 14.6 SE 6 9 1017.8 - 0.0 - - - - - - -
25/10:30am 14.7 SE 9 11 1017.7 - 0.0 - - - - - - -
25/10:00am 14.4 SE 6 8 1017.8 - 0.0 - - - - - - -
25/09:30am 14.7 SE 6 8 1018.0 - 0.0 - - - - - - -
25/09:00am 14.1 SE 7 8 1018.3 - 0.0 - - - - - - -
25/08:30am 13.5 SE 4 7 1018.2 - 0.0 - - - - - - -
25/08:00am 13.2 ESE 8 10 1017.9 - 0.0 - - - - - - -
25/07:30am 13.0 SE 9 12 1017.5 - 0.0 - - - - - - -
25/07:00am 12.4 S 9 11 1017.3 - 0.0 - - - - - - -
25/06:30am 12.9 SSE 7 9 1017.0 - 0.0 - - - - - - -
25/06:00am 12.8 SSE 8 10 1016.9 - 0.0 - - - - - - -
25/05:30am 12.7 S 7 9 1016.8 - 0.0 - - - - - - -
25/05:00am 13.3 S 4 5 1016.6 - 0.0 - - - - - - -
25/04:30am 13.6 S 3 7 1016.4 - 0.0 - - - - - - -
25/04:00am 13.5 SSE 5 9 1016.1 - 0.0 - - - - - - -
25/03:30am 13.6 S 6 10 1016.2 - 0.0 - - - - - - -
25/03:00am 14.0 S 6 9 1016.2 - 0.0 - - - - - - -
25/02:30am 14.0 SSW 5 7 1016.4 - 0.0 - - - - - - -
25/02:00am 14.0 S 7 10 1016.7 - 0.0 - - - - - - -
25/01:30am 14.1 SSW 7 9 1016.9 - 0.0 - - - - - - -
25/01:00am 13.9 S 6 9 1017.2 - 0.0 - - - - - - -
25/12:30am 13.7 SSW 9 14 1017.2 - 0.0 - - - - - - -
25/12:00am 13.5 SW 8 10 1017.0 - 0.0 - - - - - - -
 
Date/Time
EDT
Temp

°C
Wind Pressure Rain
since 9am
mm
Weather Cloud Vis
km
Sea
Height
m
Swell
Dir
 
Speed
knots
Gust
knots
hPa Trend Height
m
Period
s
Dir
24/11:30pm 13.8 SW 7 9 1017.0 - 0.0 - - - - - - -
24/11:00pm 13.9 SW 12 15 1016.8 - 0.0 - - - - - - -
24/10:30pm 14.4 WSW 13 17 1016.5 - 0.0 - - - - - - -
24/10:00pm 14.4 WSW 11 16 1016.4 - 0.0 - - - - - - -
24/09:30pm 14.3 WSW 13 18 1016.2 - 0.0 - - - - - - -
24/09:00pm 14.5 WSW 16 21 1015.7 - 0.0 - - - - - - -
24/08:30pm 14.5 WSW 15 19 1015.3 - 0.0 - - - - - - -
24/08:00pm 14.5 WSW 16 22 1014.9 - 0.0 - - - - - - -
24/07:30pm 14.8 WSW 17 23 1014.5 - 0.0 - - - - - - -
24/07:00pm 15.1 WSW 17 21 1014.1 - 0.0 - - - - - - -
24/06:30pm 15.9 WSW 16 22 1013.6 - 0.0 - - - - - - -
24/06:00pm 15.9 WSW 19 26 1013.3 - 0.0 - - - - - - -
24/05:30pm 16.0 WSW 23 28 1012.9 - 0.0 - - - - - - -
24/05:00pm 16.4 WSW 21 27 1012.4 - 0.0 - - - - - - -
24/04:30pm 16.9 WSW 20 25 1012.4 - 0.0 - - - - - - -
24/04:00pm 16.9 WSW 20 25 1012.2 - 0.0 - - - - - - -
24/03:30pm 17.1 WSW 21 26 1011.8 - 0.0 - - - - - - -
24/03:00pm 17.9 WSW 16 21 1011.6 - 0.0 - - - - - - -
24/02:30pm 18.0 WSW 16 20 1011.6 - 0.0 - - - - - - -
24/02:00pm 18.2 WSW 15 19 1011.8 - 0.0 - - - - - - -
24/01:30pm 17.6 WSW 16 20 1011.9 - 0.0 - - - - - - -
24/01:00pm 17.7 WSW 17 21 1012.1 - 0.0 - - - - - - -
24/12:30pm 19.3 WSW 11 17 1012.1 - 0.0 - - - - - - -
24/12:00pm 19.0 WSW 10 13 1012.0 - 0.0 - - - - - - -
24/11:30am 19.8 WSW 10 12 1011.8 - 0.0 - - - - - - -
24/11:00am 20.6 WSW 11 15 1012.3 - 0.0 - - - - - - -
24/10:30am 18.9 SW 6 9 1011.7 - 0.0 - - - - - - -
24/10:00am 20.1 NNW 4 8 1011.5 - 0.0 - - - - - - -
24/09:30am 17.7 NNW 6 9 1011.9 - 0.0 - - - - - - -
24/09:00am 16.9 N 5 8 1011.9 - 0.0 - - - - - - -
24/08:30am 15.7 N 6 10 1012.0 - 0.0 - - - - - - -
24/08:00am 15.0 N 4 7 1011.7 - 0.0 - - - - - - -
24/07:30am 14.4 NNE 5 7 1011.7 - 0.0 - - - - - - -
24/07:00am 14.4 NNE 5 8 1011.6 - 0.0 - - - - - - -
24/06:30am 14.7 NNE 5 7 1011.6 - 0.0 - - - - - - -
24/06:00am 14.9 NE 7 11 1011.4 - 0.0 - - - - - - -
24/05:30am 15.1 NNE 7 10 1011.6 - 0.0 - - - - - - -
24/05:00am 15.2 NNE 7 11 1011.7 - 0.0 - - - - - - -
24/04:30am 15.2 NE 9 15 1011.7 - 0.0 - - - - - - -
24/04:00am 15.3 NE 9 14 1011.9 - 0.0 - - - - - - -
24/03:30am 15.4 ENE 7 12 1012.2 - 0.0 - - - - - - -
24/03:00am 15.5 ENE 8 15 1012.6 - 0.0 - - - - - - -
24/02:30am 15.7 ENE 8 13 1013.0 - 0.0 - - - - - - -
24/02:00am 15.8 ENE 9 14 1013.5 - 0.0 - - - - - - -
24/01:30am 15.9 NE 10 15 1013.7 - 0.0 - - - - - - -
24/01:00am 16.1 ENE 9 15 1014.0 - 0.0 - - - - - - -
24/12:30am 16.0 ENE 8 12 1014.6 - 0.0 - - - - - - -
24/12:00am 16.1 E 9 14 1015.0 - 0.0 - - - - - - -
 
Date/Time
EDT
Temp

°C
Wind Pressure Rain
since 9am
mm
Weather Cloud Vis
km
Sea
Height
m
Swell
Dir
 
Speed
knots
Gust
knots
hPa Trend Height
m
Period
s
Dir
23/11:30pm 16.1 E 8 13 1015.1 - 0.0 - - - - - - -
23/11:00pm 16.1 E 13 18 1015.5 - 0.0 - - - - - - -
23/10:30pm 15.9 E 11 18 1015.4 - 0.0 - - - - - - -
23/10:00pm 15.9 ENE 9 16 1015.8 - 0.0 - - - - - - -
23/09:30pm 15.4 E 5 8 1015.8 - 0.0 - - - - - - -
23/09:00pm 15.7 E 6 9 1015.7 - 0.0 - - - - - - -
23/08:30pm 15.5 ENE 6 10 1015.6 - 0.0 - - - - - - -
23/08:00pm 15.2 E 6 9 1015.6 - 0.0 - - - - - - -
23/07:30pm 15.3 ESE 5 7 1015.7 - 0.0 - - - - - - -
23/07:00pm 15.9 SE 6 8 1015.5 - 0.0 - - - - - - -
23/06:30pm 16.1 SE 7 9 1015.6 - 0.0 - - - - - - -
23/06:00pm 16.1 SE 10 13 1015.7 - 0.0 - - - - - - -
23/05:30pm 16.6 SE 11 15 1015.8 - 0.0 - - - - - - -
23/05:00pm 16.6 SE 12 16 1015.8 - 0.0 - - - - - - -
23/04:30pm 16.4 SE 13 16 1016.3 - 0.0 - - - - - - -
23/04:00pm 17.2 SE 12 14 1016.9 - 0.0 - - - - - - -
23/03:30pm 17.3 SE 10 13 1017.1 - 0.0 - - - - - - -
23/03:00pm 16.7 SE 10 13 1017.2 - 0.0 - - - - - - -
23/02:30pm 16.6 SE 9 12 1017.7 - 0.0 - - - - - - -
23/02:00pm 16.1 SE 9 12 1018.1 - 0.0 - - - - - - -
23/01:30pm 15.8 SE 10 13 1018.5 - 0.0 - - - - - - -
23/01:00pm 15.4 ESE 10 13 1019.0 - 0.0 - - - - - - -
23/12:30pm 15.2 ESE 11 15 1019.3 - 0.0 - - - - - - -
23/12:00pm 14.7 SE 12 17 1019.7 - 0.0 - - - - - - -
23/11:30am 14.7 SE 13 18 1020.1 - 0.0 - - - - - - -
23/11:00am 14.7 SE 13 18 1020.4 - 0.0 - - - - - - -
23/10:30am 14.0 SE 14 19 1020.7 - 0.0 - - - - - - -
23/10:00am 13.9 SE 15 19 1020.9 - 0.0 - - - - - - -
23/09:30am 14.1 SE 12 16 1020.8 - 0.0 - - - - - - -
23/09:00am 13.7 SE 14 19 1020.8 - 0.0 - - - - - - -
23/08:30am 13.4 SE 13 17 1021.0 - 0.0 - - - - - - -
23/08:00am 13.6 SE 15 19 1020.9 - 0.0 - - - - - - -
23/07:30am 13.5 SE 13 18 1020.9 - 0.0 - - - - - - -
23/07:00am 13.8 SE 11 18 1020.5 - 0.0 - - - - - - -
23/06:30am 13.5 SE 12 17 1020.4 - 0.0 - - - - - - -
23/06:00am 13.6 SE 12 17 1020.2 - 0.0 - - - - - - -
23/05:30am 13.4 SE 14 19 1020.2 - 0.0 - - - - - - -
23/05:00am 13.5 SE 13 17 1020.2 - 0.0 - - - - - - -
23/04:30am 13.6 SE 13 17 1020.1 - 0.0 - - - - - - -
23/04:00am 13.4 SSE 13 17 1020.2 - 0.0 - - - - - - -
23/03:30am 13.4 SSE 13 19 1020.2 - 0.0 - - - - - - -
23/03:00am 13.4 SSE 15 19 1020.4 - 0.0 - - - - - - -
23/02:30am 13.5 SSE 14 18 1020.5 - 0.0 - - - - - - -
23/02:00am 13.4 SSE 15 20 1020.5 - 0.0 - - - - - - -
23/01:30am 13.7 SSE 13 17 1020.6 - 0.0 - - - - - - -
23/01:00am 13.9 SSE 12 16 1020.8 - 0.0 - - - - - - -
23/12:30am 13.6 SSE 11 17 1020.8 - 0.0 - - - - - - -
23/12:00am 13.6 SSE 12 15 1020.9 - 0.0 - - - - - - -
 
Date/Time
EDT
Temp

°C
Wind Pressure Rain
since 9am
mm
Weather Cloud Vis
km
Sea
Height
m
Swell
Dir
 
Speed
knots
Gust
knots
hPa Trend Height
m
Period
s
Dir
22/11:30pm 13.9 SSE 11 15 1020.9 - 0.0 - - - - - - -
22/11:00pm 13.7 SSE 11 15 1020.7 - 0.0 - - - - - - -
22/10:30pm 13.8 SSE 11 15 1020.6 - 0.0 - - - - - - -
22/10:00pm 13.7 SSE 12 16 1020.7 - 0.0 - - - - - - -
22/09:30pm 13.8 SSE 11 16 1020.9 - 0.0 - - - - - - -
22/09:00pm 13.9 SSE 11 15 1020.6 - 0.0 - - - - - - -
22/08:30pm 14.1 SSE 12 15 1020.3 - 0.0 - - - - - - -
22/08:00pm 13.9 S 11 15 1020.0 - 0.0 - - - - - - -
22/07:30pm 14.1 S 11 16 1019.3 - 0.0 - - - - - - -
22/07:00pm 14.2 SSW 13 19 1018.7 - 0.0 - - - - - - -
22/06:30pm 14.4 SSW 13 18 1018.2 - 0.0 - - - - - - -

Other Formats:

Comma delimited format used in spreadsheet applications
http://www.bom.gov.au/fwo/IDV60701/IDV60701.94830.axf

JavaScript Object Notation format (JSON) in row-major order
http://www.bom.gov.au/fwo/IDV60701/IDV60701.94830.json